createdAt,value
2023-04-10T00:00:46.336Z,9.15
2023-04-10T00:02:19.377Z,9.30
2023-04-10T00:03:53.349Z,9.30
2023-04-10T00:05:27.110Z,9.07
2023-04-10T00:08:34.148Z,8.57
2023-04-10T00:10:06.864Z,9.40
2023-04-10T00:11:39.786Z,8.93
2023-04-10T00:13:12.821Z,8.75
2023-04-10T00:14:46.108Z,8.13
2023-04-10T00:16:19.137Z,8.50
2023-04-10T00:17:55.191Z,8.82
2023-04-10T00:19:28.328Z,8.48
2023-04-10T00:21:01.215Z,9.50
2023-04-10T00:22:33.439Z,8.25
2023-04-10T00:24:08.166Z,8.90
2023-04-10T00:25:41.085Z,8.95
2023-04-10T00:27:14.043Z,8.75
2023-04-10T00:28:47.020Z,9.20
2023-04-10T00:30:21.062Z,8.63
2023-04-10T00:31:53.988Z,8.63
2023-04-10T00:33:26.862Z,9.20
2023-04-10T00:34:59.782Z,9.38
2023-04-10T00:36:33.004Z,8.90
2023-04-10T00:38:05.918Z,9.75
2023-04-10T00:39:40.218Z,9.45
2023-04-10T00:41:13.182Z,9.40
2023-04-10T00:42:46.079Z,9.02
2023-04-10T00:44:19.005Z,9.07
2023-04-10T00:45:52.045Z,9.60
2023-04-10T00:47:25.685Z,9.27
2023-04-10T00:48:58.823Z,9.30
2023-04-10T00:50:31.846Z,9.73
2023-04-10T00:52:04.831Z,9.27
2023-04-10T00:53:37.833Z,9.05
2023-04-10T00:55:12.710Z,9.52
2023-04-10T00:56:47.118Z,10.35
2023-04-10T00:58:20.265Z,9.75
2023-04-10T00:59:53.465Z,9.60
2023-04-10T01:01:25.436Z,9.80
2023-04-10T01:03:00.749Z,9.15
2023-04-10T01:04:34.306Z,9.15
2023-04-10T01:06:16.214Z,9.40
2023-04-10T01:08:03.935Z,9.93
2023-04-10T01:09:42.836Z,9.35
2023-04-10T01:11:25.123Z,9.23
2023-04-10T01:13:09.791Z,9.07
2023-04-10T01:14:50.364Z,9.93
2023-04-10T01:16:27.822Z,9.60
2023-04-10T01:18:05.574Z,10.20
2023-04-10T01:20:02.403Z,10.50
2023-04-10T01:21:37.529Z,10.02
2023-04-10T01:23:28.293Z,10.05
2023-04-10T01:25:14.700Z,10.43
2023-04-10T01:27:07.624Z,9.88
2023-04-10T01:29:02.344Z,10.57
2023-04-10T01:30:37.061Z,10.68
2023-04-10T01:32:14.754Z,10.75
2023-04-10T01:33:50.755Z,10.50
2023-04-10T01:35:25.471Z,9.98
2023-04-10T01:37:02.470Z,10.15
2023-04-10T01:38:38.436Z,10.15
2023-04-10T01:40:15.410Z,9.90
2023-04-10T01:41:52.124Z,10.85
2023-04-10T01:43:27.308Z,10.45
2023-04-10T01:45:02.976Z,10.48
2023-04-10T01:46:38.108Z,10.60
2023-04-10T01:48:11.801Z,10.20
2023-04-10T01:49:47.672Z,9.63
2023-04-10T01:51:21.657Z,10.82
2023-04-10T01:52:55.895Z,9.90
2023-04-10T01:54:29.140Z,11.00
2023-04-10T01:56:02.924Z,10.25
2023-04-10T01:57:37.064Z,10.95
2023-04-10T01:59:10.184Z,10.80
2023-04-10T02:00:45.047Z,12.13
2023-04-10T02:02:18.079Z,11.35
2023-04-10T02:03:51.444Z,10.73
2023-04-10T02:07:04.950Z,9.95
2023-04-10T02:08:41.611Z,11.25
2023-04-10T02:10:21.429Z,11.02
2023-04-10T02:11:59.886Z,10.68
2023-04-10T02:13:36.455Z,10.70
2023-04-10T02:15:11.635Z,10.82
2023-04-10T02:16:46.763Z,10.68
2023-04-10T02:18:20.685Z,9.98
2023-04-10T02:19:55.415Z,10.85
2023-04-10T02:21:28.940Z,10.70
2023-04-10T02:23:03.856Z,11.05
2023-04-10T02:24:37.140Z,10.57
2023-04-10T02:26:09.734Z,9.60
2023-04-10T02:27:43.510Z,10.05
2023-04-10T02:29:16.587Z,10.45
2023-04-10T02:30:49.549Z,10.05
2023-04-10T02:32:22.932Z,10.23
2023-04-10T02:35:29.325Z,9.73
2023-04-10T02:37:02.295Z,10.55
2023-04-10T02:38:35.291Z,10.02
2023-04-10T02:40:09.434Z,9.63
2023-04-10T02:41:41.335Z,9.50
2023-04-10T02:43:14.264Z,9.43
2023-04-10T02:44:47.269Z,9.82
2023-04-10T02:46:20.348Z,10.57
2023-04-10T02:47:54.751Z,9.95
2023-04-10T02:49:27.233Z,9.73
2023-04-10T02:51:00.298Z,10.48
2023-04-10T02:52:33.237Z,10.07
2023-04-10T02:54:06.162Z,10.95
2023-04-10T02:55:39.084Z,11.80
2023-04-10T02:57:12.087Z,11.70
2023-04-10T02:58:46.296Z,11.45
2023-04-10T03:00:19.371Z,11.13
2023-04-10T03:01:53.245Z,9.32
2023-04-10T03:03:27.734Z,10.38
2023-04-10T03:05:02.631Z,11.00
2023-04-10T03:06:35.730Z,9.98
2023-04-10T03:08:08.733Z,9.98
2023-04-10T03:09:41.832Z,10.30
2023-04-10T03:11:13.793Z,11.05
2023-04-10T03:12:48.764Z,10.63
2023-04-10T03:14:20.826Z,10.77
2023-04-10T03:15:53.824Z,11.30
2023-04-10T03:17:26.799Z,10.35
2023-04-10T03:19:00.697Z,11.07
2023-04-10T03:20:34.128Z,10.13
2023-04-10T03:23:38.984Z,10.93
2023-04-10T03:25:11.942Z,10.30
2023-04-10T03:26:44.969Z,10.52
2023-04-10T03:28:17.931Z,10.75
2023-04-10T03:29:50.983Z,10.38
2023-04-10T03:31:23.143Z,9.45
2023-04-10T03:32:56.560Z,10.65
2023-04-10T03:36:02.945Z,9.70
2023-04-10T03:37:35.928Z,10.02
2023-04-10T03:39:07.877Z,10.40
2023-04-10T03:40:40.967Z,10.95
2023-04-10T03:42:13.919Z,10.18
2023-04-10T03:43:46.940Z,9.75
2023-04-10T03:45:19.089Z,10.00
2023-04-10T03:46:52.138Z,10.05
2023-04-10T03:48:24.278Z,8.98
2023-04-10T03:49:58.849Z,9.32
2023-04-10T03:51:31.896Z,9.60
2023-04-10T03:53:04.792Z,9.77
2023-04-10T03:54:37.828Z,9.10
2023-04-10T03:56:11.041Z,9.05
2023-04-10T03:57:44.066Z,9.10
2023-04-10T03:59:18.368Z,10.23
2023-04-10T04:00:51.583Z,9.85
2023-04-10T04:02:24.679Z,9.07
2023-04-10T04:03:59.220Z,9.73
2023-04-10T04:05:35.425Z,9.27
2023-04-10T04:07:09.105Z,9.65
2023-04-10T04:08:41.032Z,9.10
2023-04-10T04:10:14.003Z,9.07
2023-04-10T04:11:46.967Z,9.52
2023-04-10T04:13:19.847Z,9.52
2023-04-10T04:14:52.784Z,9.63
2023-04-10T04:16:25.748Z,8.65
2023-04-10T04:17:58.925Z,9.70
2023-04-10T04:19:31.989Z,9.40
2023-04-10T04:21:08.363Z,9.27
2023-04-10T04:22:41.484Z,9.30
2023-04-10T04:24:14.538Z,9.48
2023-04-10T04:25:46.848Z,9.90
2023-04-10T04:27:21.748Z,9.55
2023-04-10T04:28:54.675Z,9.05
2023-04-10T04:30:27.823Z,9.98
2023-04-10T04:32:00.793Z,9.75
2023-04-10T04:33:33.806Z,8.93
2023-04-10T04:35:07.779Z,9.55
2023-04-10T04:36:42.013Z,9.02
2023-04-10T04:38:16.677Z,9.73
2023-04-10T04:39:49.647Z,9.68
2023-04-10T04:41:22.658Z,9.32
2023-04-10T04:42:55.655Z,9.25
2023-04-10T04:44:28.588Z,9.10
2023-04-10T04:46:01.635Z,10.25
2023-04-10T04:47:34.755Z,9.55
2023-04-10T04:49:07.701Z,10.48
2023-04-10T04:50:42.085Z,10.18
2023-04-10T04:52:16.401Z,9.85
2023-04-10T04:53:49.443Z,10.48
2023-04-10T04:55:22.461Z,8.98
2023-04-10T04:56:55.476Z,10.43
2023-04-10T04:58:27.490Z,9.85
2023-04-10T05:00:00.452Z,9.55
2023-04-10T05:01:33.450Z,9.70
2023-04-10T05:03:07.314Z,9.48
2023-04-10T05:04:40.743Z,9.05
2023-04-10T05:07:48.708Z,8.82
2023-04-10T05:09:21.666Z,8.43
2023-04-10T05:10:54.814Z,9.10
2023-04-10T05:12:27.797Z,9.05
2023-04-10T05:14:01.503Z,9.13
2023-04-10T05:15:33.576Z,8.82
2023-04-10T05:17:06.592Z,9.52
2023-04-10T05:18:39.632Z,9.52
2023-04-10T05:20:13.434Z,9.13
2023-04-10T05:21:46.500Z,9.23
2023-04-10T05:23:20.811Z,9.57
2023-04-10T05:24:55.124Z,9.52
2023-04-10T05:26:28.039Z,8.57
2023-04-10T05:28:01.320Z,9.05
2023-04-10T05:29:34.616Z,8.90
2023-04-10T05:31:08.030Z,9.40
2023-04-10T05:34:13.800Z,7.68
2023-04-10T05:35:47.590Z,8.95
2023-04-10T05:37:20.612Z,10.85
2023-04-10T05:38:55.055Z,9.98
2023-04-10T05:40:29.010Z,9.38
2023-04-10T05:42:02.914Z,8.85
2023-04-10T05:43:36.584Z,8.50
2023-04-10T05:45:10.177Z,9.38
2023-04-10T05:46:43.167Z,9.65
2023-04-10T05:48:16.262Z,9.50
2023-04-10T05:49:49.311Z,9.35
2023-04-10T05:51:22.344Z,10.15
2023-04-10T05:52:56.446Z,9.63
2023-04-10T05:54:30.840Z,10.38
2023-04-10T05:56:03.968Z,10.23
2023-04-10T05:57:36.919Z,9.15
2023-04-10T05:59:09.811Z,10.10
2023-04-10T06:00:42.826Z,9.57
2023-04-10T06:02:16.511Z,8.90
2023-04-10T06:03:50.669Z,10.02
2023-04-10T06:05:23.669Z,9.35
2023-04-10T06:06:58.468Z,9.43
2023-04-10T06:08:31.418Z,9.45
2023-04-10T06:10:06.885Z,9.73
2023-04-10T06:11:39.996Z,9.43
2023-04-10T06:13:15.758Z,8.50
2023-04-10T06:14:49.117Z,9.32
2023-04-10T06:17:55.541Z,9.15
2023-04-10T06:19:28.575Z,9.10
2023-04-10T06:21:04.213Z,8.45
2023-04-10T06:22:37.316Z,8.70
2023-04-10T06:24:12.694Z,8.80
2023-04-10T06:25:47.335Z,9.43
2023-04-10T06:27:20.401Z,8.98
2023-04-10T06:28:53.579Z,8.85
2023-04-10T06:31:59.735Z,8.20
2023-04-10T06:35:06.335Z,8.80
2023-04-10T06:36:39.407Z,8.75
2023-04-10T06:38:12.576Z,8.65
2023-04-10T06:39:45.842Z,9.02
2023-04-10T06:41:20.773Z,8.95
2023-04-10T06:42:53.758Z,8.77
2023-04-10T06:44:26.709Z,9.48
2023-04-10T06:45:59.658Z,8.95
2023-04-10T06:47:33.002Z,8.85
2023-04-10T06:50:39.187Z,8.00
2023-04-10T06:52:12.114Z,9.13
2023-04-10T06:53:45.023Z,8.90
2023-04-10T06:55:18.276Z,8.43
2023-04-10T06:56:52.578Z,9.50
2023-04-10T06:58:25.728Z,8.95
2023-04-10T06:59:58.625Z,9.20
2023-04-10T07:01:31.684Z,8.45
2023-04-10T07:03:04.751Z,9.05
2023-04-10T07:04:38.005Z,8.93
2023-04-10T07:06:12.155Z,8.88
2023-04-10T07:07:45.362Z,8.68
2023-04-10T07:09:18.408Z,9.02
2023-04-10T07:10:51.324Z,8.95
2023-04-10T07:12:26.647Z,9.02
2023-04-10T07:13:59.662Z,9.57
2023-04-10T07:15:32.965Z,9.32
2023-04-10T07:17:06.356Z,8.38
2023-04-10T07:20:14.620Z,9.32
2023-04-10T07:23:23.593Z,8.50
2023-04-10T07:24:59.813Z,8.38
2023-04-10T07:26:32.971Z,9.25
2023-04-10T07:28:07.729Z,8.63
2023-04-10T07:29:41.136Z,9.75
2023-04-10T07:32:47.716Z,8.38
2023-04-10T07:34:21.273Z,7.95
2023-04-10T07:35:54.447Z,8.73
2023-04-10T07:37:27.766Z,7.65
2023-04-10T07:39:01.400Z,7.32
2023-04-10T07:40:34.830Z,7.75
2023-04-10T07:43:42.562Z,7.53
2023-04-10T07:45:16.129Z,7.22
2023-04-10T07:46:50.602Z,7.18
2023-04-10T07:48:23.739Z,6.65
2023-04-10T07:49:57.030Z,6.80
2023-04-10T07:51:30.978Z,7.20
2023-04-10T07:53:07.983Z,6.85
2023-04-10T07:54:41.559Z,7.07
2023-04-10T07:57:52.582Z,6.70
2023-04-10T07:59:28.017Z,6.47
2023-04-10T08:01:01.315Z,6.07
2023-04-10T08:02:35.239Z,7.05
2023-04-10T08:04:08.878Z,6.72
2023-04-10T08:05:42.399Z,6.65
2023-04-10T08:08:48.961Z,6.10
2023-04-10T08:10:25.373Z,6.13
2023-04-10T08:11:58.662Z,6.43
2023-04-10T08:15:07.266Z,6.38
2023-04-10T08:16:43.444Z,6.00
2023-04-10T08:18:16.661Z,6.38
2023-04-10T08:19:53.236Z,6.00
2023-04-10T08:21:27.749Z,5.95
2023-04-10T08:24:46.118Z,6.65
2023-04-10T08:27:52.806Z,5.60
2023-04-10T08:29:26.233Z,6.10
2023-04-10T08:31:00.953Z,6.32
2023-04-10T08:32:36.329Z,6.55
2023-04-10T08:34:09.543Z,6.45
2023-04-10T08:35:42.590Z,5.85
2023-04-10T08:37:15.741Z,6.72
2023-04-10T08:38:49.564Z,6.25
2023-04-10T08:40:22.963Z,6.25
2023-04-10T08:41:56.383Z,5.80
2023-04-10T08:45:02.757Z,5.72
2023-04-10T08:46:38.279Z,5.80
2023-04-10T08:48:15.628Z,6.10
2023-04-10T08:49:52.861Z,5.53
2023-04-10T08:51:31.546Z,5.63
2023-04-10T08:53:10.099Z,5.32
2023-04-10T08:54:47.936Z,5.60
2023-04-10T08:56:21.592Z,5.63
2023-04-10T08:58:01.164Z,5.40
2023-04-10T08:59:35.406Z,5.80
2023-04-10T09:01:12.047Z,5.93
2023-04-10T09:02:51.219Z,5.18
2023-04-10T09:04:25.386Z,5.60
2023-04-10T09:06:02.281Z,6.90
2023-04-10T09:07:35.259Z,5.05
2023-04-10T09:09:08.429Z,4.78
2023-04-10T09:10:41.407Z,5.43
2023-04-10T09:12:15.614Z,5.18
2023-04-10T09:13:48.604Z,5.00
2023-04-10T09:15:21.592Z,5.57
2023-04-10T09:16:55.614Z,5.40
2023-04-10T09:18:44.885Z,5.50
2023-04-10T09:20:23.216Z,5.28
2023-04-10T09:21:57.277Z,5.63
2023-04-10T09:23:30.185Z,4.95
2023-04-10T09:25:04.995Z,5.43
2023-04-10T09:26:37.969Z,5.40
2023-04-10T09:28:11.096Z,5.30
2023-04-10T09:29:45.834Z,8.73
2023-04-10T09:31:32.435Z,6.20
2023-04-10T09:33:21.731Z,5.40
2023-04-10T09:34:58.756Z,5.43
2023-04-10T09:36:31.923Z,5.38
2023-04-10T09:38:16.695Z,4.80
2023-04-10T09:39:49.768Z,4.90
2023-04-10T09:41:22.779Z,5.20
2023-04-10T09:42:57.035Z,4.88
2023-04-10T09:44:32.591Z,4.90
2023-04-10T09:46:06.078Z,4.43
2023-04-10T09:47:39.132Z,4.70
2023-04-10T09:49:12.109Z,5.05
2023-04-10T09:50:46.981Z,4.90
2023-04-10T09:52:21.302Z,4.43
2023-04-10T09:53:54.452Z,4.63
2023-04-10T09:55:27.641Z,4.72
2023-04-10T09:57:00.966Z,4.78
2023-04-10T10:00:09.461Z,4.85
2023-04-10T10:01:43.529Z,4.32
2023-04-10T10:03:18.623Z,4.80
2023-04-10T10:04:52.936Z,4.35
2023-04-10T10:06:27.857Z,4.55
2023-04-10T10:08:01.055Z,4.20
2023-04-10T10:09:34.120Z,4.38
2023-04-10T10:11:11.419Z,4.25
2023-04-10T10:12:50.517Z,4.10
2023-04-10T10:14:24.322Z,4.60
2023-04-10T10:16:05.336Z,4.43
2023-04-10T10:17:47.630Z,4.43
2023-04-10T10:19:30.561Z,4.20
2023-04-10T10:21:04.696Z,4.10
2023-04-10T10:22:39.386Z,3.88
2023-04-10T10:24:14.219Z,4.03
2023-04-10T10:25:47.798Z,4.00
2023-04-10T10:27:21.197Z,4.20
2023-04-10T10:28:54.820Z,4.28
2023-04-10T10:30:30.432Z,5.00
2023-04-10T10:32:05.175Z,4.40
2023-04-10T10:33:39.504Z,4.53
2023-04-10T10:35:13.161Z,4.00
2023-04-10T10:36:46.112Z,4.35
2023-04-10T10:38:21.290Z,4.45
2023-04-10T10:40:00.414Z,3.90
2023-04-10T10:41:41.796Z,3.80
2023-04-10T10:43:19.131Z,3.90
2023-04-10T10:44:59.509Z,4.10
2023-04-10T10:46:38.510Z,4.22
2023-04-10T10:48:11.636Z,4.20
2023-04-10T10:49:58.250Z,3.65
2023-04-10T10:51:47.921Z,3.92
2023-04-10T10:53:40.243Z,3.47
2023-04-10T10:55:34.777Z,3.35
2023-04-10T10:57:43.028Z,3.95
2023-04-10T10:59:16.006Z,3.90
2023-04-10T11:01:10.284Z,3.53
2023-04-10T11:02:43.853Z,3.42
2023-04-10T11:04:43.134Z,3.90
2023-04-10T11:06:19.393Z,4.03
2023-04-10T11:08:09.119Z,4.07
2023-04-10T11:09:52.162Z,4.35
2023-04-10T11:11:27.393Z,4.55
2023-04-10T11:13:19.044Z,4.20
2023-04-10T11:14:59.993Z,3.65
2023-04-10T11:16:48.393Z,3.50
2023-04-10T11:18:23.742Z,3.53
2023-04-10T11:20:01.314Z,3.30
2023-04-10T11:21:35.545Z,3.58
2023-04-10T11:23:10.953Z,3.58
2023-04-10T11:25:02.497Z,3.78
2023-04-10T11:26:41.466Z,3.60
2023-04-10T11:28:35.635Z,3.95
2023-04-10T11:30:26.924Z,3.65
2023-04-10T11:32:01.543Z,3.47
2023-04-10T11:33:34.651Z,3.70
2023-04-10T11:35:08.335Z,3.63
2023-04-10T11:36:42.764Z,3.72
2023-04-10T11:38:17.923Z,4.22
2023-04-10T11:40:03.713Z,3.67
2023-04-10T11:41:39.279Z,3.60
2023-04-10T11:43:14.850Z,3.40
2023-04-10T11:44:48.903Z,3.15
2023-04-10T11:46:22.589Z,3.30
2023-04-10T11:47:56.734Z,3.60
2023-04-10T11:49:33.086Z,3.30
2023-04-10T11:51:13.284Z,3.10
2023-04-10T11:52:46.491Z,2.88
2023-04-10T11:54:21.110Z,4.45
2023-04-10T11:55:54.162Z,3.05
2023-04-10T11:57:36.187Z,2.90
2023-04-10T11:59:11.209Z,3.13
2023-04-10T12:00:44.321Z,3.25
2023-04-10T12:02:17.421Z,3.60
2023-04-10T12:05:24.065Z,3.28
2023-04-10T12:06:58.589Z,3.60
2023-04-10T12:08:32.745Z,3.25
2023-04-10T12:10:07.132Z,3.03
2023-04-10T12:11:40.096Z,3.20
2023-04-10T12:13:27.616Z,3.05
2023-04-10T12:15:00.587Z,2.80
2023-04-10T12:16:34.078Z,2.65
2023-04-10T12:18:07.469Z,2.88
2023-04-10T12:19:41.446Z,2.90
2023-04-10T12:21:14.734Z,2.85
2023-04-10T12:24:43.259Z,2.70
2023-04-10T12:26:17.716Z,2.80
2023-04-10T12:27:52.193Z,2.90
2023-04-10T12:29:28.749Z,2.90
2023-04-10T12:31:01.771Z,2.90
2023-04-10T12:32:34.778Z,3.05
2023-04-10T12:34:09.817Z,2.80
2023-04-10T12:35:43.697Z,3.35
2023-04-10T12:37:16.944Z,2.92
2023-04-10T12:40:22.853Z,3.03
2023-04-10T12:42:11.474Z,2.95
2023-04-10T12:43:44.802Z,3.05
2023-04-10T12:48:24.969Z,2.80
2023-04-10T12:50:06.861Z,2.90
2023-04-10T12:51:43.556Z,3.28
2023-04-10T12:53:16.699Z,2.78
2023-04-10T12:54:49.720Z,2.88
2023-04-10T12:56:24.448Z,2.63
2023-04-10T12:57:57.774Z,3.08
2023-04-10T13:01:07.756Z,2.70
2023-04-10T13:02:42.034Z,2.90
2023-04-10T13:04:15.560Z,3.30
2023-04-10T13:05:48.829Z,2.92
2023-04-10T13:07:21.896Z,2.72
2023-04-10T13:08:56.115Z,3.00
2023-04-10T13:10:29.641Z,2.95
2023-04-10T13:13:36.962Z,2.70
2023-04-10T13:15:10.837Z,2.80
2023-04-10T13:16:45.261Z,2.53
2023-04-10T13:18:18.228Z,2.80
2023-04-10T13:19:51.381Z,2.97
2023-04-10T13:21:26.144Z,2.78
2023-04-10T13:22:59.126Z,3.13
2023-04-10T13:24:32.289Z,2.90
2023-04-10T13:26:05.749Z,2.72
2023-04-10T13:27:38.702Z,2.90
2023-04-10T13:29:11.965Z,2.80
2023-04-10T13:32:19.034Z,3.17
2023-04-10T13:33:52.105Z,2.80
2023-04-10T13:35:25.237Z,2.95
2023-04-10T13:36:58.292Z,3.00
2023-04-10T13:38:31.427Z,2.65
2023-04-10T13:40:05.189Z,2.60
2023-04-10T13:41:38.160Z,2.60
2023-04-10T13:43:11.216Z,2.85
2023-04-10T13:44:44.207Z,3.13
2023-04-10T13:46:17.900Z,3.47
2023-04-10T13:47:52.328Z,2.40
2023-04-10T13:49:25.533Z,2.85
2023-04-10T13:50:58.474Z,2.60
2023-04-10T13:52:31.430Z,2.40
2023-04-10T13:54:04.911Z,2.85
2023-04-10T13:55:38.857Z,2.55
2023-04-10T13:57:11.942Z,2.78
2023-04-10T13:58:47.200Z,2.83
2023-04-10T14:00:20.584Z,3.00
2023-04-10T14:01:53.735Z,2.60
2023-04-10T14:06:34.938Z,2.60
2023-04-10T14:08:11.640Z,2.70
2023-04-10T14:09:46.235Z,2.70
2023-04-10T14:11:19.307Z,2.50
2023-04-10T14:12:52.291Z,2.58
2023-04-10T14:14:25.353Z,2.80
2023-04-10T14:15:58.268Z,2.40
2023-04-10T14:17:31.270Z,2.72
2023-04-10T14:19:05.598Z,2.50
2023-04-10T14:20:38.556Z,2.53
2023-04-10T14:22:11.568Z,2.70
2023-04-10T14:23:44.618Z,2.70
2023-04-10T14:25:17.778Z,2.58
2023-04-10T14:26:52.092Z,2.90
2023-04-10T14:28:25.042Z,2.40
2023-04-10T14:29:58.046Z,2.58
2023-04-10T14:31:30.159Z,3.00
2023-04-10T14:33:03.181Z,2.67
2023-04-10T14:34:37.558Z,2.70
2023-04-10T14:36:11.341Z,3.20
2023-04-10T14:37:44.468Z,3.10
2023-04-10T14:39:17.485Z,3.15
2023-04-10T14:40:50.740Z,2.80
2023-04-10T14:43:56.773Z,2.90
2023-04-10T14:45:29.887Z,2.78
2023-04-10T14:47:06.088Z,3.20
2023-04-10T14:48:39.272Z,3.22
2023-04-10T14:50:14.335Z,3.05
2023-04-10T14:51:48.436Z,3.05
2023-04-10T14:53:23.102Z,2.80
2023-04-10T14:54:56.065Z,3.28
2023-04-10T14:56:29.108Z,3.35
2023-04-10T14:58:03.790Z,2.90
2023-04-10T14:59:36.826Z,3.10
2023-04-10T15:01:11.837Z,3.22
2023-04-10T15:02:45.339Z,3.60
2023-04-10T15:04:18.594Z,3.20
2023-04-10T15:06:00.292Z,3.20
2023-04-10T15:07:33.209Z,3.53
2023-04-10T15:09:06.164Z,4.07
2023-04-10T15:10:39.219Z,3.30
2023-04-10T15:12:12.297Z,3.50
2023-04-10T15:13:45.230Z,3.40
2023-04-10T15:15:18.774Z,3.20
2023-04-10T15:16:53.985Z,3.25
2023-04-10T15:18:27.385Z,3.22
2023-04-10T15:20:00.396Z,3.28
2023-04-10T15:21:34.816Z,3.25
2023-04-10T15:23:07.826Z,3.30
2023-04-10T15:24:49.993Z,3.42
2023-04-10T15:26:23.748Z,3.22
2023-04-10T15:27:57.102Z,3.35
2023-04-10T15:29:30.281Z,3.40
2023-04-10T15:31:03.257Z,3.38
2023-04-10T15:32:38.393Z,3.00
2023-04-10T15:34:11.564Z,3.50
2023-04-10T15:35:49.488Z,3.10
2023-04-10T15:37:25.395Z,3.20
2023-04-10T15:38:59.717Z,3.25
2023-04-10T15:40:32.784Z,3.22
2023-04-10T15:42:08.170Z,3.17
2023-04-10T15:43:42.511Z,3.17
2023-04-10T15:45:15.644Z,3.22
2023-04-10T15:46:48.725Z,3.40
2023-04-10T15:48:22.634Z,3.28
2023-04-10T15:49:57.285Z,3.40
2023-04-10T15:51:30.375Z,3.40
2023-04-10T15:53:04.849Z,3.20
2023-04-10T15:54:39.550Z,3.45
2023-04-10T15:56:12.492Z,3.47
2023-04-10T15:57:45.826Z,3.45
2023-04-10T16:00:51.584Z,3.30
2023-04-10T16:02:24.728Z,3.00
2023-04-10T16:03:58.017Z,3.55
2023-04-10T16:05:31.290Z,3.70
2023-04-10T16:07:04.275Z,3.63
2023-04-10T16:08:38.687Z,3.33
2023-04-10T16:10:12.427Z,3.35
2023-04-10T16:11:45.691Z,3.25
2023-04-10T16:14:51.422Z,3.25
2023-04-10T16:16:25.675Z,3.60
2023-04-10T16:17:58.735Z,3.60
2023-04-10T16:19:32.014Z,3.67
2023-04-10T16:22:41.760Z,3.47
2023-04-10T16:24:16.061Z,3.20
2023-04-10T16:25:48.995Z,3.40
2023-04-10T16:27:21.875Z,3.47
2023-04-10T16:28:54.885Z,3.53
2023-04-10T16:30:28.009Z,3.60
2023-04-10T16:32:00.982Z,3.40
2023-04-10T16:33:33.913Z,3.75
2023-04-10T16:35:08.027Z,3.50
2023-04-10T16:36:41.052Z,3.70
2023-04-10T16:38:14.021Z,3.50
2023-04-10T16:39:48.283Z,5.07
2023-04-10T16:41:21.563Z,3.50
2023-04-10T16:44:27.593Z,3.80
2023-04-10T16:46:01.136Z,3.92
2023-04-10T16:47:34.138Z,3.40
2023-04-10T16:49:07.177Z,3.70
2023-04-10T16:50:40.230Z,3.80
2023-04-10T16:52:13.214Z,3.80
2023-04-10T16:53:46.497Z,3.50
2023-04-10T16:56:53.714Z,3.15
2023-04-10T16:58:26.904Z,3.80
2023-04-10T16:59:59.901Z,3.50
2023-04-10T17:01:35.128Z,3.63
2023-04-10T17:03:08.237Z,3.50
2023-04-10T17:04:41.238Z,3.97
2023-04-10T17:06:14.366Z,3.33
2023-04-10T17:07:47.424Z,4.07
2023-04-10T17:09:21.432Z,3.50
2023-04-10T17:10:55.705Z,3.30
2023-04-10T17:12:28.670Z,3.40
2023-04-10T17:14:01.601Z,3.50
2023-04-10T17:15:34.544Z,3.67
2023-04-10T17:17:07.617Z,3.53
2023-04-10T17:18:41.443Z,3.85
2023-04-10T17:20:14.651Z,3.28
2023-04-10T17:21:47.634Z,3.53
2023-04-10T17:23:20.673Z,3.40
2023-04-10T17:24:53.729Z,3.45
2023-04-10T17:26:28.122Z,3.10
2023-04-10T17:28:01.098Z,3.60
2023-04-10T17:29:37.171Z,3.40
2023-04-10T17:31:10.139Z,3.58
2023-04-10T17:32:43.389Z,3.25
2023-04-10T17:35:51.573Z,3.50
2023-04-10T17:37:24.621Z,3.03
2023-04-10T17:38:57.818Z,3.53
2023-04-10T17:42:05.017Z,3.67
2023-04-10T17:43:38.206Z,3.78
2023-04-10T17:45:12.270Z,3.50
2023-04-10T17:46:45.242Z,3.20
2023-04-10T17:48:18.432Z,3.70
2023-04-10T17:51:24.269Z,3.58
2023-04-10T17:52:57.272Z,3.85
2023-04-10T17:54:30.281Z,3.45
2023-04-10T17:56:03.333Z,3.50
2023-04-10T17:57:37.646Z,3.47
2023-04-10T17:59:10.681Z,3.40
2023-04-10T18:00:44.005Z,4.00
2023-04-10T18:03:50.160Z,3.00
2023-04-10T18:05:23.434Z,3.38
2023-04-10T18:06:56.438Z,3.60
2023-04-10T18:08:29.448Z,3.35
2023-04-10T18:10:02.324Z,3.47
2023-04-10T18:11:35.184Z,3.50
2023-04-10T18:13:09.520Z,3.25
2023-04-10T18:14:43.976Z,3.33
2023-04-10T18:16:17.501Z,3.47
2023-04-10T18:17:50.699Z,3.63
2023-04-10T18:19:23.664Z,3.20
2023-04-10T18:20:56.575Z,3.42
2023-04-10T18:22:29.712Z,3.13
2023-04-10T18:24:02.791Z,3.15
2023-04-10T18:25:36.071Z,3.20
2023-04-10T18:28:43.517Z,3.25
2023-04-10T18:30:17.145Z,3.25
2023-04-10T18:31:50.043Z,3.22
2023-04-10T18:33:24.208Z,3.03
2023-04-10T18:34:57.174Z,3.50
2023-04-10T18:36:30.141Z,3.60
2023-04-10T18:38:03.162Z,3.45
2023-04-10T18:39:38.101Z,3.65
2023-04-10T18:41:11.295Z,3.50
2023-04-10T18:42:44.256Z,3.92
2023-04-10T18:44:18.733Z,3.63
2023-04-10T18:45:51.766Z,3.63
2023-04-10T18:47:24.785Z,3.45
2023-04-10T18:48:57.924Z,3.40
2023-04-10T18:50:31.747Z,3.67
2023-04-10T18:52:04.799Z,3.72
2023-04-10T18:53:49.434Z,3.58
2023-04-10T18:55:22.656Z,3.22
2023-04-10T18:56:56.735Z,3.40
2023-04-10T18:58:30.055Z,3.10
2023-04-10T19:01:39.984Z,3.28
2023-04-10T19:03:14.124Z,3.33
2023-04-10T19:04:47.390Z,4.03
2023-04-10T19:06:23.806Z,3.55
2023-04-10T19:08:03.723Z,3.60
2023-04-10T19:09:37.816Z,3.50
2023-04-10T19:11:12.100Z,3.05
2023-04-10T19:12:45.264Z,3.33
2023-04-10T19:14:18.226Z,3.63
2023-04-10T19:15:52.794Z,3.45
2023-04-10T19:17:25.823Z,3.45
2023-04-10T19:18:58.949Z,3.30
2023-04-10T19:20:50.074Z,3.70
2023-04-10T19:22:24.917Z,3.50
2023-04-10T19:23:57.842Z,3.78
2023-04-10T19:25:30.813Z,3.33
2023-04-10T19:27:04.030Z,3.90
2023-04-10T19:28:37.047Z,3.20
2023-04-10T19:30:10.925Z,3.33
2023-04-10T19:31:45.405Z,3.50
2023-04-10T19:33:18.647Z,3.53
2023-04-10T19:34:53.301Z,3.28
2023-04-10T19:36:27.187Z,3.30
2023-04-10T19:38:00.270Z,3.42
2023-04-10T19:39:33.251Z,4.00
2023-04-10T19:41:14.625Z,3.17
2023-04-10T19:42:47.599Z,3.60
2023-04-10T19:44:20.544Z,3.45
2023-04-10T19:45:54.554Z,3.72
2023-04-10T19:47:28.875Z,3.30
2023-04-10T19:49:01.892Z,3.95
2023-04-10T19:50:35.179Z,3.75
2023-04-10T19:52:08.609Z,3.38
2023-04-10T19:55:18.207Z,3.70
2023-04-10T19:56:51.837Z,3.47
2023-04-10T19:58:39.398Z,3.85
2023-04-10T20:00:14.871Z,3.83
2023-04-10T20:01:47.943Z,3.60
2023-04-10T20:03:26.625Z,3.35
2023-04-10T20:04:59.838Z,3.83
2023-04-10T20:06:32.888Z,3.90
2023-04-10T20:08:06.052Z,3.60
2023-04-10T20:09:39.313Z,3.88
2023-04-10T20:11:12.249Z,3.60
2023-04-10T20:12:45.295Z,3.90
2023-04-10T20:14:18.274Z,3.97
2023-04-10T20:15:51.525Z,3.70
2023-04-10T20:19:01.556Z,3.53
2023-04-10T20:20:34.545Z,3.55
2023-04-10T20:22:08.867Z,3.60
2023-04-10T20:23:41.768Z,3.72
2023-04-10T20:25:14.906Z,3.85
2023-04-10T20:26:47.855Z,4.60
2023-04-10T20:28:20.913Z,4.10
2023-04-10T20:29:53.891Z,3.83
2023-04-10T20:31:27.042Z,3.92
2023-04-10T20:33:00.154Z,3.85
2023-04-10T20:34:34.556Z,3.65
2023-04-10T20:36:08.224Z,3.60
2023-04-10T20:37:41.328Z,3.80
2023-04-10T20:39:14.226Z,4.00
2023-04-10T20:40:47.358Z,4.13
2023-04-10T20:42:20.449Z,3.70
2023-04-10T20:43:53.399Z,3.88
2023-04-10T20:45:26.304Z,3.90
2023-04-10T20:46:59.255Z,4.20
2023-04-10T20:48:32.225Z,3.80
2023-04-10T20:50:07.854Z,3.65
2023-04-10T20:51:40.791Z,3.95
2023-04-10T20:53:13.896Z,3.80
2023-04-10T20:54:46.862Z,3.78
2023-04-10T20:56:21.143Z,3.80
2023-04-10T20:57:55.740Z,3.63
2023-04-10T20:59:28.812Z,4.07
2023-04-10T21:01:01.832Z,4.07
2023-04-10T21:02:35.145Z,3.80
2023-04-10T21:04:07.410Z,3.85
2023-04-10T21:05:42.584Z,3.95
2023-04-10T21:07:15.695Z,4.20
2023-04-10T21:08:48.622Z,4.00
2023-04-10T21:10:21.730Z,4.35
2023-04-10T21:11:54.643Z,4.18
2023-04-10T21:13:27.596Z,3.92
2023-04-10T21:15:00.569Z,3.70
2023-04-10T21:16:34.852Z,4.20
2023-04-10T21:18:08.016Z,4.40
2023-04-10T21:19:40.955Z,4.40
2023-04-10T21:21:15.447Z,4.07
2023-04-10T21:22:48.531Z,4.72
2023-04-10T21:24:21.453Z,3.90
2023-04-10T21:25:53.369Z,3.92
2023-04-10T21:27:26.510Z,3.85
2023-04-10T21:28:59.496Z,4.13
2023-04-10T21:30:32.624Z,3.88
2023-04-10T21:32:05.641Z,4.05
2023-04-10T21:33:38.559Z,4.28
2023-04-10T21:35:11.670Z,4.22
2023-04-10T21:36:45.967Z,4.22
2023-04-10T21:38:18.867Z,4.40
2023-04-10T21:39:51.801Z,3.75
2023-04-10T21:41:24.803Z,4.25
2023-04-10T21:42:57.756Z,4.25
2023-04-10T21:44:30.674Z,4.25
2023-04-10T21:46:03.641Z,4.18
2023-04-10T21:47:35.796Z,4.32
2023-04-10T21:49:08.736Z,4.78
2023-04-10T21:50:40.998Z,4.40
2023-04-10T21:52:15.454Z,4.15
2023-04-10T21:53:48.422Z,4.05
2023-04-10T21:55:21.488Z,4.15
2023-04-10T21:56:54.476Z,4.75
2023-04-10T21:58:27.512Z,4.28
2023-04-10T22:00:00.400Z,3.83
2023-04-10T22:01:34.253Z,4.68
2023-04-10T22:03:08.460Z,4.13
2023-04-10T22:04:47.973Z,4.20
2023-04-10T22:06:27.808Z,4.57